sensor_id;sensor_type;location;lat;lon;timestamp;P1;durP1;ratioP1;P2;durP2;ratioP2
5077;SDS011;2557;51.390;7.494;2023-04-24T00:00:47;1.00;;;1.00;;
5077;SDS011;2557;51.390;7.494;2023-04-24T00:03:13;3.53;;;1.20;;
5077;SDS011;2557;51.390;7.494;2023-04-24T00:05:39;1.30;;;1.20;;
5077;SDS011;2557;51.390;7.494;2023-04-24T00:08:06;1.30;;;1.20;;
5077;SDS011;2557;51.390;7.494;2023-04-24T00:10:32;2.67;;;1.40;;
5077;SDS011;2557;51.390;7.494;2023-04-24T00:12:58;2.27;;;1.30;;
5077;SDS011;2557;51.390;7.494;2023-04-24T00:15:24;2.93;;;1.33;;
5077;SDS011;2557;51.390;7.494;2023-04-24T00:17:50;1.30;;;1.20;;
5077;SDS011;2557;51.390;7.494;2023-04-24T00:20:18;1.40;;;1.30;;
5077;SDS011;2557;51.390;7.494;2023-04-24T00:22:44;1.50;;;1.40;;
5077;SDS011;2557;51.390;7.494;2023-04-24T00:25:10;3.83;;;1.30;;
5077;SDS011;2557;51.390;7.494;2023-04-24T00:27:36;1.30;;;1.20;;
5077;SDS011;2557;51.390;7.494;2023-04-24T00:30:03;1.70;;;1.60;;
5077;SDS011;2557;51.390;7.494;2023-04-24T00:32:30;1.60;;;1.50;;
5077;SDS011;2557;51.390;7.494;2023-04-24T00:34:56;1.50;;;1.40;;
5077;SDS011;2557;51.390;7.494;2023-04-24T00:37:22;1.50;;;1.40;;
5077;SDS011;2557;51.390;7.494;2023-04-24T00:39:48;1.90;;;1.70;;
5077;SDS011;2557;51.390;7.494;2023-04-24T00:42:14;1.90;;;1.80;;
5077;SDS011;2557;51.390;7.494;2023-04-24T00:44:40;1.63;;;1.50;;
5077;SDS011;2557;51.390;7.494;2023-04-24T00:47:06;1.70;;;1.60;;
5077;SDS011;2557;51.390;7.494;2023-04-24T00:49:32;3.57;;;1.93;;
5077;SDS011;2557;51.390;7.494;2023-04-24T00:51:58;1.57;;;1.47;;
5077;SDS011;2557;51.390;7.494;2023-04-24T00:54:24;1.80;;;1.30;;
5077;SDS011;2557;51.390;7.494;2023-04-24T00:56:50;1.60;;;1.50;;
5077;SDS011;2557;51.390;7.494;2023-04-24T00:59:17;2.50;;;1.47;;
5077;SDS011;2557;51.390;7.494;2023-04-24T01:01:43;1.60;;;1.50;;
5077;SDS011;2557;51.390;7.494;2023-04-24T01:04:11;1.53;;;1.43;;
5077;SDS011;2557;51.390;7.494;2023-04-24T01:06:38;1.80;;;1.70;;
5077;SDS011;2557;51.390;7.494;2023-04-24T01:09:04;2.03;;;1.93;;
5077;SDS011;2557;51.390;7.494;2023-04-24T01:11:30;2.20;;;1.47;;
5077;SDS011;2557;51.390;7.494;2023-04-24T01:13:57;1.93;;;1.83;;
5077;SDS011;2557;51.390;7.494;2023-04-24T01:16:23;1.60;;;1.50;;
5077;SDS011;2557;51.390;7.494;2023-04-24T01:18:50;1.90;;;1.80;;
5077;SDS011;2557;51.390;7.494;2023-04-24T01:21:16;1.60;;;1.50;;
5077;SDS011;2557;51.390;7.494;2023-04-24T01:23:45;1.80;;;1.70;;
5077;SDS011;2557;51.390;7.494;2023-04-24T01:26:12;2.33;;;1.70;;
5077;SDS011;2557;51.390;7.494;2023-04-24T01:28:38;2.17;;;1.67;;
5077;SDS011;2557;51.390;7.494;2023-04-24T01:31:04;1.87;;;1.77;;
5077;SDS011;2557;51.390;7.494;2023-04-24T01:33:30;1.63;;;1.53;;
5077;SDS011;2557;51.390;7.494;2023-04-24T01:35:56;1.53;;;1.43;;
5077;SDS011;2557;51.390;7.494;2023-04-24T01:38:23;4.40;;;1.90;;
5077;SDS011;2557;51.390;7.494;2023-04-24T01:40:49;2.53;;;1.77;;
5077;SDS011;2557;51.390;7.494;2023-04-24T01:43:15;3.87;;;1.90;;
5077;SDS011;2557;51.390;7.494;2023-04-24T01:45:42;2.13;;;2.03;;
5077;SDS011;2557;51.390;7.494;2023-04-24T01:48:08;3.10;;;1.50;;
5077;SDS011;2557;51.390;7.494;2023-04-24T01:50:34;1.70;;;1.60;;
5077;SDS011;2557;51.390;7.494;2023-04-24T01:53:00;1.63;;;1.53;;
5077;SDS011;2557;51.390;7.494;2023-04-24T01:55:26;1.70;;;1.53;;
5077;SDS011;2557;51.390;7.494;2023-04-24T01:57:53;2.37;;;1.80;;
5077;SDS011;2557;51.390;7.494;2023-04-24T02:00:20;2.27;;;1.70;;
5077;SDS011;2557;51.390;7.494;2023-04-24T02:02:46;2.53;;;2.03;;
5077;SDS011;2557;51.390;7.494;2023-04-24T02:05:12;4.90;;;2.37;;
5077;SDS011;2557;51.390;7.494;2023-04-24T02:07:39;2.03;;;1.80;;
5077;SDS011;2557;51.390;7.494;2023-04-24T02:10:05;2.23;;;1.97;;
5077;SDS011;2557;51.390;7.494;2023-04-24T02:12:31;1.73;;;1.63;;
5077;SDS011;2557;51.390;7.494;2023-04-24T02:14:57;4.90;;;1.97;;
5077;SDS011;2557;51.390;7.494;2023-04-24T02:17:23;2.63;;;2.00;;
5077;SDS011;2557;51.390;7.494;2023-04-24T02:19:49;1.97;;;1.87;;
5077;SDS011;2557;51.390;7.494;2023-04-24T02:22:15;3.40;;;2.90;;
5077;SDS011;2557;51.390;7.494;2023-04-24T02:24:41;2.73;;;2.53;;
5077;SDS011;2557;51.390;7.494;2023-04-24T02:27:07;4.57;;;3.17;;
5077;SDS011;2557;51.390;7.494;2023-04-24T02:29:33;3.93;;;3.00;;
5077;SDS011;2557;51.390;7.494;2023-04-24T02:31:59;3.10;;;2.90;;
5077;SDS011;2557;51.390;7.494;2023-04-24T02:34:25;3.60;;;3.30;;
5077;SDS011;2557;51.390;7.494;2023-04-24T02:36:51;3.53;;;3.23;;
5077;SDS011;2557;51.390;7.494;2023-04-24T02:39:18;4.70;;;2.87;;
5077;SDS011;2557;51.390;7.494;2023-04-24T02:41:44;3.27;;;3.03;;
5077;SDS011;2557;51.390;7.494;2023-04-24T02:44:10;3.60;;;3.40;;
5077;SDS011;2557;51.390;7.494;2023-04-24T02:46:36;3.50;;;3.20;;
5077;SDS011;2557;51.390;7.494;2023-04-24T02:49:03;3.13;;;2.93;;
5077;SDS011;2557;51.390;7.494;2023-04-24T02:51:29;3.73;;;2.90;;
5077;SDS011;2557;51.390;7.494;2023-04-24T02:53:55;6.80;;;4.10;;
5077;SDS011;2557;51.390;7.494;2023-04-24T02:56:21;3.37;;;3.07;;
5077;SDS011;2557;51.390;7.494;2023-04-24T02:58:47;8.33;;;4.30;;
5077;SDS011;2557;51.390;7.494;2023-04-24T03:01:13;5.40;;;4.27;;
5077;SDS011;2557;51.390;7.494;2023-04-24T03:03:40;5.10;;;4.70;;
5077;SDS011;2557;51.390;7.494;2023-04-24T03:06:06;5.33;;;4.93;;
5077;SDS011;2557;51.390;7.494;2023-04-24T03:08:33;7.03;;;6.20;;
5077;SDS011;2557;51.390;7.494;2023-04-24T03:10:59;7.00;;;6.13;;
5077;SDS011;2557;51.390;7.494;2023-04-24T03:13:25;12.17;;;9.10;;
5077;SDS011;2557;51.390;7.494;2023-04-24T03:15:51;12.57;;;10.53;;
5077;SDS011;2557;51.390;7.494;2023-04-24T03:18:17;12.40;;;10.13;;
5077;SDS011;2557;51.390;7.494;2023-04-24T03:20:45;11.00;;;9.70;;
5077;SDS011;2557;51.390;7.494;2023-04-24T03:23:12;12.23;;;9.37;;
5077;SDS011;2557;51.390;7.494;2023-04-24T03:25:38;11.03;;;9.93;;
5077;SDS011;2557;51.390;7.494;2023-04-24T03:28:04;14.40;;;10.20;;
5077;SDS011;2557;51.390;7.494;2023-04-24T03:30:30;13.30;;;10.07;;
5077;SDS011;2557;51.390;7.494;2023-04-24T03:32:56;11.23;;;9.67;;
5077;SDS011;2557;51.390;7.494;2023-04-24T03:35:22;13.40;;;10.83;;
5077;SDS011;2557;51.390;7.494;2023-04-24T03:37:48;15.57;;;10.60;;
5077;SDS011;2557;51.390;7.494;2023-04-24T03:40:14;11.60;;;9.70;;
5077;SDS011;2557;51.390;7.494;2023-04-24T03:42:40;11.53;;;9.77;;
5077;SDS011;2557;51.390;7.494;2023-04-24T03:45:06;13.20;;;9.90;;
5077;SDS011;2557;51.390;7.494;2023-04-24T03:47:32;13.00;;;11.03;;
5077;SDS011;2557;51.390;7.494;2023-04-24T03:49:58;17.37;;;11.10;;
5077;SDS011;2557;51.390;7.494;2023-04-24T03:52:24;16.53;;;11.70;;
5077;SDS011;2557;51.390;7.494;2023-04-24T03:54:50;14.67;;;9.93;;
5077;SDS011;2557;51.390;7.494;2023-04-24T03:57:16;13.23;;;10.87;;
5077;SDS011;2557;51.390;7.494;2023-04-24T03:59:42;15.90;;;11.00;;
5077;SDS011;2557;51.390;7.494;2023-04-24T04:02:08;13.53;;;10.17;;
5077;SDS011;2557;51.390;7.494;2023-04-24T04:04:34;15.13;;;11.90;;
5077;SDS011;2557;51.390;7.494;2023-04-24T04:07:00;12.30;;;11.00;;
5077;SDS011;2557;51.390;7.494;2023-04-24T04:09:27;13.33;;;9.40;;
5077;SDS011;2557;51.390;7.494;2023-04-24T04:11:53;12.00;;;9.70;;
5077;SDS011;2557;51.390;7.494;2023-04-24T04:14:20;12.73;;;9.70;;
5077;SDS011;2557;51.390;7.494;2023-04-24T04:16:46;14.53;;;10.80;;
5077;SDS011;2557;51.390;7.494;2023-04-24T04:19:12;14.90;;;9.27;;
5077;SDS011;2557;51.390;7.494;2023-04-24T04:21:38;15.70;;;10.83;;
5077;SDS011;2557;51.390;7.494;2023-04-24T04:24:04;15.33;;;10.60;;
5077;SDS011;2557;51.390;7.494;2023-04-24T04:26:30;14.30;;;10.00;;
5077;SDS011;2557;51.390;7.494;2023-04-24T04:28:57;14.43;;;10.80;;
5077;SDS011;2557;51.390;7.494;2023-04-24T04:31:23;10.07;;;9.03;;
5077;SDS011;2557;51.390;7.494;2023-04-24T04:33:49;10.33;;;9.03;;
5077;SDS011;2557;51.390;7.494;2023-04-24T04:36:15;11.40;;;10.27;;
5077;SDS011;2557;51.390;7.494;2023-04-24T04:38:42;16.00;;;10.97;;
5077;SDS011;2557;51.390;7.494;2023-04-24T04:41:09;13.13;;;9.93;;
5077;SDS011;2557;51.390;7.494;2023-04-24T04:43:35;12.27;;;10.13;;
5077;SDS011;2557;51.390;7.494;2023-04-24T04:46:03;12.27;;;9.13;;
5077;SDS011;2557;51.390;7.494;2023-04-24T04:48:29;13.47;;;9.97;;
5077;SDS011;2557;51.390;7.494;2023-04-24T04:50:56;12.43;;;10.50;;
5077;SDS011;2557;51.390;7.494;2023-04-24T04:53:22;13.80;;;10.50;;
5077;SDS011;2557;51.390;7.494;2023-04-24T04:55:48;15.30;;;10.60;;
5077;SDS011;2557;51.390;7.494;2023-04-24T04:58:14;14.40;;;11.43;;
5077;SDS011;2557;51.390;7.494;2023-04-24T05:00:40;13.40;;;11.07;;
5077;SDS011;2557;51.390;7.494;2023-04-24T05:03:07;13.60;;;11.37;;
5077;SDS011;2557;51.390;7.494;2023-04-24T05:05:33;19.03;;;12.10;;
5077;SDS011;2557;51.390;7.494;2023-04-24T05:07:59;14.97;;;11.57;;
5077;SDS011;2557;51.390;7.494;2023-04-24T05:10:25;21.73;;;12.30;;
5077;SDS011;2557;51.390;7.494;2023-04-24T05:12:51;14.07;;;11.00;;
5077;SDS011;2557;51.390;7.494;2023-04-24T05:15:17;14.13;;;11.13;;
5077;SDS011;2557;51.390;7.494;2023-04-24T05:17:43;12.33;;;11.07;;
5077;SDS011;2557;51.390;7.494;2023-04-24T05:20:09;11.93;;;10.20;;
5077;SDS011;2557;51.390;7.494;2023-04-24T05:22:35;12.43;;;9.67;;
5077;SDS011;2557;51.390;7.494;2023-04-24T05:25:01;13.00;;;9.53;;
5077;SDS011;2557;51.390;7.494;2023-04-24T05:27:27;12.77;;;9.90;;
5077;SDS011;2557;51.390;7.494;2023-04-24T05:29:54;10.53;;;9.43;;
5077;SDS011;2557;51.390;7.494;2023-04-24T05:32:20;12.53;;;9.63;;
5077;SDS011;2557;51.390;7.494;2023-04-24T05:34:46;11.50;;;8.70;;
5077;SDS011;2557;51.390;7.494;2023-04-24T05:37:12;14.57;;;9.30;;
5077;SDS011;2557;51.390;7.494;2023-04-24T05:39:38;15.70;;;10.13;;
5077;SDS011;2557;51.390;7.494;2023-04-24T05:42:05;13.53;;;9.00;;
5077;SDS011;2557;51.390;7.494;2023-04-24T05:44:32;10.47;;;8.57;;
5077;SDS011;2557;51.390;7.494;2023-04-24T05:46:58;11.80;;;9.40;;
5077;SDS011;2557;51.390;7.494;2023-04-24T05:49:24;9.47;;;7.20;;
5077;SDS011;2557;51.390;7.494;2023-04-24T05:51:50;8.50;;;7.50;;
5077;SDS011;2557;51.390;7.494;2023-04-24T05:54:16;9.17;;;8.20;;
5077;SDS011;2557;51.390;7.494;2023-04-24T05:56:42;12.63;;;9.50;;
5077;SDS011;2557;51.390;7.494;2023-04-24T05:59:08;9.90;;;8.60;;
5077;SDS011;2557;51.390;7.494;2023-04-24T06:01:34;9.17;;;8.27;;
5077;SDS011;2557;51.390;7.494;2023-04-24T06:04:01;8.90;;;8.00;;
5077;SDS011;2557;51.390;7.494;2023-04-24T06:06:27;10.93;;;8.47;;
5077;SDS011;2557;51.390;7.494;2023-04-24T06:08:53;10.03;;;8.23;;
5077;SDS011;2557;51.390;7.494;2023-04-24T06:11:20;13.00;;;9.73;;
5077;SDS011;2557;51.390;7.494;2023-04-24T06:13:47;10.37;;;9.53;;
5077;SDS011;2557;51.390;7.494;2023-04-24T06:16:13;13.67;;;8.60;;
5077;SDS011;2557;51.390;7.494;2023-04-24T06:18:39;10.17;;;9.07;;
5077;SDS011;2557;51.390;7.494;2023-04-24T06:21:05;11.23;;;8.53;;
5077;SDS011;2557;51.390;7.494;2023-04-24T06:23:31;9.83;;;8.83;;
5077;SDS011;2557;51.390;7.494;2023-04-24T06:25:58;9.53;;;8.10;;
5077;SDS011;2557;51.390;7.494;2023-04-24T06:28:24;10.07;;;8.30;;
5077;SDS011;2557;51.390;7.494;2023-04-24T06:30:50;9.60;;;7.27;;
5077;SDS011;2557;51.390;7.494;2023-04-24T06:33:16;7.87;;;6.97;;
5077;SDS011;2557;51.390;7.494;2023-04-24T06:35:42;12.23;;;8.00;;
5077;SDS011;2557;51.390;7.494;2023-04-24T06:38:08;7.20;;;6.53;;
5077;SDS011;2557;51.390;7.494;2023-04-24T06:40:34;7.47;;;6.70;;
5077;SDS011;2557;51.390;7.494;2023-04-24T06:43:00;6.93;;;6.30;;
5077;SDS011;2557;51.390;7.494;2023-04-24T06:45:28;9.07;;;6.50;;
5077;SDS011;2557;51.390;7.494;2023-04-24T06:47:54;6.10;;;5.53;;
5077;SDS011;2557;51.390;7.494;2023-04-24T06:50:20;6.20;;;5.60;;
5077;SDS011;2557;51.390;7.494;2023-04-24T06:52:46;6.03;;;5.53;;
5077;SDS011;2557;51.390;7.494;2023-04-24T06:55:12;5.50;;;5.00;;
5077;SDS011;2557;51.390;7.494;2023-04-24T06:57:40;6.50;;;5.90;;
5077;SDS011;2557;51.390;7.494;2023-04-24T07:00:06;5.63;;;5.13;;
5077;SDS011;2557;51.390;7.494;2023-04-24T07:02:34;9.23;;;6.00;;
5077;SDS011;2557;51.390;7.494;2023-04-24T07:05:00;6.90;;;6.20;;
5077;SDS011;2557;51.390;7.494;2023-04-24T07:07:26;7.60;;;6.80;;
5077;SDS011;2557;51.390;7.494;2023-04-24T07:09:52;7.23;;;6.53;;
5077;SDS011;2557;51.390;7.494;2023-04-24T07:12:19;9.07;;;7.43;;
5077;SDS011;2557;51.390;7.494;2023-04-24T07:14:46;6.10;;;5.50;;
5077;SDS011;2557;51.390;7.494;2023-04-24T07:17:13;7.17;;;6.47;;
5077;SDS011;2557;51.390;7.494;2023-04-24T07:19:39;6.70;;;6.00;;
5077;SDS011;2557;51.390;7.494;2023-04-24T07:22:05;7.40;;;6.47;;
5077;SDS011;2557;51.390;7.494;2023-04-24T07:24:31;7.17;;;6.47;;
5077;SDS011;2557;51.390;7.494;2023-04-24T07:26:58;7.53;;;6.83;;
5077;SDS011;2557;51.390;7.494;2023-04-24T07:29:26;6.67;;;5.93;;
5077;SDS011;2557;51.390;7.494;2023-04-24T07:31:52;7.20;;;6.50;;
5077;SDS011;2557;51.390;7.494;2023-04-24T07:34:19;6.33;;;5.73;;
5077;SDS011;2557;51.390;7.494;2023-04-24T07:36:45;6.07;;;5.57;;
5077;SDS011;2557;51.390;7.494;2023-04-24T07:39:12;6.00;;;5.27;;
5077;SDS011;2557;51.390;7.494;2023-04-24T07:41:38;5.90;;;5.00;;
5077;SDS011;2557;51.390;7.494;2023-04-24T07:44:04;5.27;;;4.50;;
5077;SDS011;2557;51.390;7.494;2023-04-24T07:46:30;4.57;;;4.27;;
5077;SDS011;2557;51.390;7.494;2023-04-24T07:48:56;4.90;;;4.50;;
5077;SDS011;2557;51.390;7.494;2023-04-24T07:51:24;4.40;;;4.10;;
5077;SDS011;2557;51.390;7.494;2023-04-24T07:53:52;4.33;;;4.03;;
5077;SDS011;2557;51.390;7.494;2023-04-24T07:56:20;4.60;;;4.20;;
5077;SDS011;2557;51.390;7.494;2023-04-24T07:58:46;4.10;;;3.70;;
5077;SDS011;2557;51.390;7.494;2023-04-24T08:01:12;4.40;;;4.00;;
5077;SDS011;2557;51.390;7.494;2023-04-24T08:03:38;4.43;;;4.13;;
5077;SDS011;2557;51.390;7.494;2023-04-24T08:06:04;4.17;;;3.77;;
5077;SDS011;2557;51.390;7.494;2023-04-24T08:08:30;2.80;;;2.60;;
5077;SDS011;2557;51.390;7.494;2023-04-24T08:10:57;2.53;;;2.43;;
5077;SDS011;2557;51.390;7.494;2023-04-24T08:13:23;2.13;;;2.03;;
5077;SDS011;2557;51.390;7.494;2023-04-24T08:15:49;2.27;;;2.00;;
5077;SDS011;2557;51.390;7.494;2023-04-24T08:18:15;2.10;;;2.00;;
5077;SDS011;2557;51.390;7.494;2023-04-24T08:20:41;2.10;;;1.90;;
5077;SDS011;2557;51.390;7.494;2023-04-24T08:23:07;2.07;;;1.87;;
5077;SDS011;2557;51.390;7.494;2023-04-24T08:25:33;1.60;;;1.50;;
5077;SDS011;2557;51.390;7.494;2023-04-24T08:28:00;1.77;;;1.67;;
5077;SDS011;2557;51.390;7.494;2023-04-24T08:30:27;1.60;;;1.50;;
5077;SDS011;2557;51.390;7.494;2023-04-24T08:32:53;1.53;;;1.43;;
5077;SDS011;2557;51.390;7.494;2023-04-24T08:35:19;1.70;;;1.60;;
5077;SDS011;2557;51.390;7.494;2023-04-24T08:37:46;1.60;;;1.50;;
5077;SDS011;2557;51.390;7.494;2023-04-24T08:40:13;1.63;;;1.40;;
5077;SDS011;2557;51.390;7.494;2023-04-24T08:42:41;1.70;;;1.60;;
5077;SDS011;2557;51.390;7.494;2023-04-24T08:45:08;1.97;;;1.30;;
5077;SDS011;2557;51.390;7.494;2023-04-24T08:47:34;1.20;;;1.10;;
5077;SDS011;2557;51.390;7.494;2023-04-24T08:50:02;1.40;;;1.30;;
5077;SDS011;2557;51.390;7.494;2023-04-24T08:52:30;1.40;;;1.30;;
5077;SDS011;2557;51.390;7.494;2023-04-24T08:54:56;1.50;;;1.40;;
5077;SDS011;2557;51.390;7.494;2023-04-24T08:57:23;1.20;;;1.10;;
5077;SDS011;2557;51.390;7.494;2023-04-24T08:59:50;1.50;;;1.40;;
5077;SDS011;2557;51.390;7.494;2023-04-24T09:02:17;2.83;;;1.50;;
5077;SDS011;2557;51.390;7.494;2023-04-24T09:04:43;1.30;;;1.20;;
5077;SDS011;2557;51.390;7.494;2023-04-24T09:07:10;1.33;;;1.23;;
5077;SDS011;2557;51.390;7.494;2023-04-24T09:09:37;1.60;;;1.50;;
5077;SDS011;2557;51.390;7.494;2023-04-24T09:12:04;1.20;;;1.10;;
5077;SDS011;2557;51.390;7.494;2023-04-24T09:14:31;1.50;;;1.40;;
5077;SDS011;2557;51.390;7.494;2023-04-24T09:16:57;1.40;;;1.30;;
5077;SDS011;2557;51.390;7.494;2023-04-24T09:19:23;1.30;;;1.20;;
5077;SDS011;2557;51.390;7.494;2023-04-24T09:21:49;4.10;;;1.23;;
5077;SDS011;2557;51.390;7.494;2023-04-24T09:24:19;1.50;;;1.40;;
5077;SDS011;2557;51.390;7.494;2023-04-24T09:26:47;1.80;;;1.57;;
5077;SDS011;2557;51.390;7.494;2023-04-24T09:29:14;1.40;;;1.30;;
5077;SDS011;2557;51.390;7.494;2023-04-24T09:31:40;2.10;;;2.00;;
5077;SDS011;2557;51.390;7.494;2023-04-24T09:34:06;1.30;;;1.20;;
5077;SDS011;2557;51.390;7.494;2023-04-24T09:36:39;1.40;;;1.30;;
5077;SDS011;2557;51.390;7.494;2023-04-24T09:39:10;1.50;;;1.40;;
5077;SDS011;2557;51.390;7.494;2023-04-24T09:41:57;1.07;;;1.03;;
5077;SDS011;2557;51.390;7.494;2023-04-24T09:44:26;1.33;;;1.23;;
5077;SDS011;2557;51.390;7.494;2023-04-24T09:46:56;1.67;;;1.50;;
5077;SDS011;2557;51.390;7.494;2023-04-24T09:49:24;1.30;;;1.20;;
5077;SDS011;2557;51.390;7.494;2023-04-24T09:51:50;2.03;;;1.40;;
5077;SDS011;2557;51.390;7.494;2023-04-24T09:54:17;1.90;;;1.80;;
5077;SDS011;2557;51.390;7.494;2023-04-24T09:56:46;1.30;;;1.20;;
5077;SDS011;2557;51.390;7.494;2023-04-24T09:59:13;1.40;;;1.30;;
5077;SDS011;2557;51.390;7.494;2023-04-24T10:01:39;1.57;;;1.47;;
5077;SDS011;2557;51.390;7.494;2023-04-24T10:04:14;2.57;;;1.97;;
5077;SDS011;2557;51.390;7.494;2023-04-24T10:06:40;2.10;;;1.90;;
5077;SDS011;2557;51.390;7.494;2023-04-24T10:09:08;2.13;;;1.93;;
5077;SDS011;2557;51.390;7.494;2023-04-24T10:11:36;2.53;;;2.40;;
5077;SDS011;2557;51.390;7.494;2023-04-24T10:14:03;2.90;;;2.57;;
5077;SDS011;2557;51.390;7.494;2023-04-24T10:16:29;3.80;;;3.50;;
5077;SDS011;2557;51.390;7.494;2023-04-24T10:18:55;2.73;;;2.53;;
5077;SDS011;2557;51.390;7.494;2023-04-24T10:21:23;3.00;;;2.80;;
5077;SDS011;2557;51.390;7.494;2023-04-24T10:23:49;2.80;;;2.60;;
5077;SDS011;2557;51.390;7.494;2023-04-24T10:26:16;6.40;;;3.27;;
5077;SDS011;2557;51.390;7.494;2023-04-24T10:28:46;3.93;;;3.00;;
5077;SDS011;2557;51.390;7.494;2023-04-24T10:31:16;2.90;;;2.70;;
5077;SDS011;2557;51.390;7.494;2023-04-24T10:33:43;3.90;;;2.77;;
5077;SDS011;2557;51.390;7.494;2023-04-24T10:36:09;2.53;;;2.33;;
5077;SDS011;2557;51.390;7.494;2023-04-24T10:38:36;3.37;;;2.77;;
5077;SDS011;2557;51.390;7.494;2023-04-24T10:41:09;3.70;;;3.10;;
5077;SDS011;2557;51.390;7.494;2023-04-24T10:43:40;3.10;;;2.90;;
5077;SDS011;2557;51.390;7.494;2023-04-24T10:46:07;3.23;;;2.73;;
5077;SDS011;2557;51.390;7.494;2023-04-24T10:48:35;3.73;;;3.30;;
5077;SDS011;2557;51.390;7.494;2023-04-24T10:51:01;3.53;;;3.23;;
5077;SDS011;2557;51.390;7.494;2023-04-24T10:53:28;3.80;;;3.10;;
5077;SDS011;2557;51.390;7.494;2023-04-24T10:56:05;4.30;;;2.87;;
5077;SDS011;2557;51.390;7.494;2023-04-24T10:58:38;3.80;;;3.10;;
5077;SDS011;2557;51.390;7.494;2023-04-24T11:01:05;3.53;;;2.87;;
5077;SDS011;2557;51.390;7.494;2023-04-24T11:03:32;4.10;;;3.70;;
5077;SDS011;2557;51.390;7.494;2023-04-24T11:08:29;6.20;;;3.70;;
5077;SDS011;2557;51.390;7.494;2023-04-24T11:10:59;4.40;;;4.00;;
5077;SDS011;2557;51.390;7.494;2023-04-24T11:13:27;6.70;;;5.27;;
5077;SDS011;2557;51.390;7.494;2023-04-24T11:18:38;8.07;;;5.30;;
5077;SDS011;2557;51.390;7.494;2023-04-24T11:21:17;10.43;;;5.70;;
5077;SDS011;2557;51.390;7.494;2023-04-24T11:23:44;10.60;;;6.40;;
5077;SDS011;2557;51.390;7.494;2023-04-24T11:26:17;8.23;;;6.03;;
5077;SDS011;2557;51.390;7.494;2023-04-24T11:28:44;11.33;;;6.70;;
5077;SDS011;2557;51.390;7.494;2023-04-24T11:33:55;11.90;;;5.20;;
5077;SDS011;2557;51.390;7.494;2023-04-24T11:36:21;7.17;;;5.60;;
5077;SDS011;2557;51.390;7.494;2023-04-24T11:38:47;11.13;;;6.27;;
5077;SDS011;2557;51.390;7.494;2023-04-24T11:41:13;7.97;;;6.13;;
5077;SDS011;2557;51.390;7.494;2023-04-24T11:43:39;6.63;;;5.93;;
5077;SDS011;2557;51.390;7.494;2023-04-24T11:46:05;12.97;;;6.50;;
5077;SDS011;2557;51.390;7.494;2023-04-24T11:48:34;11.20;;;6.40;;
5077;SDS011;2557;51.390;7.494;2023-04-24T11:51:04;7.47;;;6.20;;
5077;SDS011;2557;51.390;7.494;2023-04-24T11:53:31;15.10;;;6.60;;
5077;SDS011;2557;51.390;7.494;2023-04-24T11:55:57;14.40;;;7.33;;
5077;SDS011;2557;51.390;7.494;2023-04-24T11:58:22;11.97;;;6.90;;
5077;SDS011;2557;51.390;7.494;2023-04-24T12:00:55;12.77;;;7.17;;
5077;SDS011;2557;51.390;7.494;2023-04-24T12:03:22;12.17;;;6.50;;
5077;SDS011;2557;51.390;7.494;2023-04-24T12:05:47;13.33;;;7.57;;
5077;SDS011;2557;51.390;7.494;2023-04-24T12:08:28;15.17;;;8.43;;
5077;SDS011;2557;51.390;7.494;2023-04-24T12:10:55;13.07;;;8.10;;
5077;SDS011;2557;51.390;7.494;2023-04-24T12:13:21;12.53;;;8.50;;
5077;SDS011;2557;51.390;7.494;2023-04-24T12:15:47;9.97;;;9.03;;
5077;SDS011;2557;51.390;7.494;2023-04-24T12:18:13;10.63;;;8.17;;
5077;SDS011;2557;51.390;7.494;2023-04-24T12:20:41;15.30;;;8.10;;
5077;SDS011;2557;51.390;7.494;2023-04-24T12:23:07;11.80;;;7.63;;
5077;SDS011;2557;51.390;7.494;2023-04-24T12:25:34;11.90;;;8.20;;
5077;SDS011;2557;51.390;7.494;2023-04-24T12:30:29;15.77;;;8.00;;
5077;SDS011;2557;51.390;7.494;2023-04-24T12:32:57;9.10;;;7.80;;
5077;SDS011;2557;51.390;7.494;2023-04-24T12:35:24;9.97;;;7.23;;
5077;SDS011;2557;51.390;7.494;2023-04-24T12:37:50;7.37;;;6.43;;
5077;SDS011;2557;51.390;7.494;2023-04-24T12:40:16;11.73;;;7.20;;
5077;SDS011;2557;51.390;7.494;2023-04-24T12:42:46;12.93;;;7.30;;
5077;SDS011;2557;51.390;7.494;2023-04-24T12:45:13;11.53;;;7.50;;
5077;SDS011;2557;51.390;7.494;2023-04-24T12:47:40;9.30;;;6.30;;
5077;SDS011;2557;51.390;7.494;2023-04-24T12:50:07;9.83;;;6.37;;
5077;SDS011;2557;51.390;7.494;2023-04-24T12:52:33;13.20;;;6.80;;
5077;SDS011;2557;51.390;7.494;2023-04-24T12:55:00;10.03;;;5.90;;
5077;SDS011;2557;51.390;7.494;2023-04-24T12:57:27;15.13;;;6.70;;
5077;SDS011;2557;51.390;7.494;2023-04-24T12:59:54;13.10;;;7.90;;
5077;SDS011;2557;51.390;7.494;2023-04-24T13:02:21;10.37;;;6.60;;
5077;SDS011;2557;51.390;7.494;2023-04-24T13:04:47;14.97;;;7.17;;
5077;SDS011;2557;51.390;7.494;2023-04-24T13:07:13;12.47;;;6.00;;
5077;SDS011;2557;51.390;7.494;2023-04-24T13:09:40;10.07;;;6.57;;
5077;SDS011;2557;51.390;7.494;2023-04-24T13:12:07;11.20;;;6.30;;
5077;SDS011;2557;51.390;7.494;2023-04-24T13:14:33;8.03;;;5.63;;
5077;SDS011;2557;51.390;7.494;2023-04-24T13:16:59;10.20;;;5.50;;
5077;SDS011;2557;51.390;7.494;2023-04-24T13:19:25;12.80;;;4.83;;
5077;SDS011;2557;51.390;7.494;2023-04-24T13:21:52;7.27;;;5.50;;
5077;SDS011;2557;51.390;7.494;2023-04-24T13:24:18;7.97;;;5.47;;
5077;SDS011;2557;51.390;7.494;2023-04-24T13:26:45;6.20;;;4.60;;
5077;SDS011;2557;51.390;7.494;2023-04-24T13:29:11;7.07;;;4.70;;
5077;SDS011;2557;51.390;7.494;2023-04-24T13:31:37;7.03;;;4.70;;
5077;SDS011;2557;51.390;7.494;2023-04-24T13:34:03;4.60;;;4.20;;
5077;SDS011;2557;51.390;7.494;2023-04-24T13:36:29;7.23;;;4.47;;
5077;SDS011;2557;51.390;7.494;2023-04-24T13:38:56;6.43;;;5.10;;
5077;SDS011;2557;51.390;7.494;2023-04-24T13:41:22;11.33;;;4.63;;
5077;SDS011;2557;51.390;7.494;2023-04-24T13:43:48;5.40;;;4.73;;
5077;SDS011;2557;51.390;7.494;2023-04-24T13:46:14;3.97;;;3.57;;
5077;SDS011;2557;51.390;7.494;2023-04-24T13:48:40;10.30;;;4.00;;
5077;SDS011;2557;51.390;7.494;2023-04-24T13:51:06;5.20;;;4.00;;
5077;SDS011;2557;51.390;7.494;2023-04-24T13:53:32;7.80;;;3.60;;
5077;SDS011;2557;51.390;7.494;2023-04-24T13:56:01;3.70;;;3.40;;
5077;SDS011;2557;51.390;7.494;2023-04-24T13:58:27;3.70;;;3.40;;
5077;SDS011;2557;51.390;7.494;2023-04-24T14:00:53;5.10;;;3.40;;
5077;SDS011;2557;51.390;7.494;2023-04-24T14:03:19;8.23;;;4.07;;
5077;SDS011;2557;51.390;7.494;2023-04-24T14:05:45;6.30;;;3.63;;
5077;SDS011;2557;51.390;7.494;2023-04-24T14:08:11;4.00;;;3.60;;
5077;SDS011;2557;51.390;7.494;2023-04-24T14:10:37;9.70;;;4.07;;
5077;SDS011;2557;51.390;7.494;2023-04-24T14:13:03;5.03;;;3.47;;
5077;SDS011;2557;51.390;7.494;2023-04-24T14:15:29;5.23;;;3.50;;
5077;SDS011;2557;51.390;7.494;2023-04-24T14:17:55;6.03;;;3.90;;
5077;SDS011;2557;51.390;7.494;2023-04-24T14:20:21;6.20;;;3.67;;
5077;SDS011;2557;51.390;7.494;2023-04-24T14:22:47;7.83;;;3.53;;
5077;SDS011;2557;51.390;7.494;2023-04-24T14:25:13;5.47;;;3.80;;
5077;SDS011;2557;51.390;7.494;2023-04-24T14:27:40;3.53;;;2.93;;
5077;SDS011;2557;51.390;7.494;2023-04-24T14:30:07;4.60;;;2.83;;
5077;SDS011;2557;51.390;7.494;2023-04-24T14:32:33;4.37;;;3.10;;
5077;SDS011;2557;51.390;7.494;2023-04-24T14:34:59;4.97;;;2.50;;
5077;SDS011;2557;51.390;7.494;2023-04-24T14:37:25;4.63;;;2.67;;
5077;SDS011;2557;51.390;7.494;2023-04-24T14:39:51;3.80;;;2.77;;
5077;SDS011;2557;51.390;7.494;2023-04-24T14:42:17;7.63;;;3.50;;
5077;SDS011;2557;51.390;7.494;2023-04-24T14:44:43;7.50;;;3.50;;
5077;SDS011;2557;51.390;7.494;2023-04-24T14:47:09;14.73;;;3.83;;
5077;SDS011;2557;51.390;7.494;2023-04-24T14:49:35;2.70;;;2.50;;
5077;SDS011;2557;51.390;7.494;2023-04-24T14:52:01;14.70;;;3.03;;
5077;SDS011;2557;51.390;7.494;2023-04-24T14:54:27;3.60;;;2.47;;
5077;SDS011;2557;51.390;7.494;2023-04-24T14:56:54;2.37;;;2.17;;
5077;SDS011;2557;51.390;7.494;2023-04-24T14:59:21;4.40;;;2.60;;
5077;SDS011;2557;51.390;7.494;2023-04-24T15:01:48;2.60;;;2.40;;
5077;SDS011;2557;51.390;7.494;2023-04-24T15:04:15;3.53;;;2.40;;
5077;SDS011;2557;51.390;7.494;2023-04-24T15:06:41;2.40;;;2.13;;
5077;SDS011;2557;51.390;7.494;2023-04-24T15:09:07;5.13;;;1.80;;
5077;SDS011;2557;51.390;7.494;2023-04-24T15:11:33;5.50;;;2.00;;
5077;SDS011;2557;51.390;7.494;2023-04-24T15:13:59;3.70;;;2.20;;
5077;SDS011;2557;51.390;7.494;2023-04-24T15:16:25;3.87;;;2.00;;